Time;durP1;ratioP1;P1;durP2;ratioP2;P2;SDS_P1;SDS_P2;PMS_P1;PMS_P2;Temp;Humidity;BMP_temperature;BMP_pressure;BME280_temperature;BME280_humidity;BME280_pressure;Samples;Min_cycle;Max_cycle;Signal;HPM_P1;HPM_P2
2021/04/22 05:17:49;;;;;;;16.62;10.30;;;;;;;6.84;88.14;99821.82;1790535;77;26113;-58
2021/04/22 05:20:18;;;;;;;14.15;8.85;;;;;;;6.90;87.65;99818.22;1783548;80;21577;-61
2021/04/22 05:22:47;;;;;;;18.82;11.25;;;;;;;7.06;86.76;99818.19;1739879;81;22334;-61
2021/04/22 05:25:17;;;;;;;14.05;8.50;;;;;;;7.21;85.95;99815.10;1719846;82;21163;-61
2021/04/22 05:27:46;;;;;;;10.75;7.20;;;;;;;7.41;85.41;99816.44;1748400;81;21638;-59
2021/04/22 05:30:16;;;;;;;11.33;7.80;;;;;;;7.59;84.39;99813.52;1750595;82;21634;-60
2021/04/22 05:32:45;;;;;;;15.35;8.58;;;;;;;7.78;83.49;99808.80;1750345;82;21187;-62
2021/04/22 05:35:16;;;;;;;18.35;8.43;;;;;;;7.97;82.88;99814.48;1750948;82;21566;-61
2021/04/22 05:37:46;;;;;;;11.00;7.25;;;;;;;8.14;81.90;99811.66;1749624;82;21159;-60
2021/04/22 05:40:16;;;;;;;12.10;7.95;;;;;;;8.32;81.13;99816.01;1746915;81;21627;-59
2021/04/22 05:42:44;;;;;;;10.82;7.87;;;;;;;8.49;80.10;99812.34;1733949;81;21177;-58
2021/04/22 05:45:15;;;;;;;13.78;9.45;;;;;;;8.67;79.68;99813.73;1743350;82;21166;-60
2021/04/22 05:47:47;;;;;;;16.62;9.78;;;;;;;8.83;79.25;99816.08;1715610;82;21746;-58
2021/04/22 05:50:16;;;;;;;15.25;9.60;;;;;;;8.97;78.19;99816.56;1760411;81;21764;-57
2021/04/22 05:52:45;;;;;;;15.98;10.30;;;;;;;9.08;77.69;99815.08;1724345;83;21315;-60
2021/04/22 05:55:16;;;;;;;12.78;8.45;;;;;;;9.22;77.75;99813.76;1720985;83;21325;-59
2021/04/22 05:57:44;;;;;;;13.13;8.65;;;;;;;9.36;77.40;99819.28;1718005;83;21278;-59
2021/04/22 06:00:16;;;;;;;8.75;6.58;;;;;;;9.49;76.68;99811.10;1705304;83;21613;-62
2021/04/22 06:02:44;;;;;;;14.53;8.25;;;;;;;9.63;76.03;99812.40;1712657;83;21752;-59
2021/04/22 06:05:13;;;;;;;11.83;7.62;;;;;;;9.74;75.31;99808.23;1725188;83;21574;-58
2021/04/22 06:07:43;;;;;;;15.32;10.15;;;;;;;9.84;74.21;99806.38;1703017;84;21601;-60
2021/04/22 06:10:13;;;;;;;18.37;12.98;;;;;;;9.94;73.82;99804.52;1706049;83;21661;-57
2021/04/22 06:12:43;;;;;;;14.90;8.63;;;;;;;10.06;73.49;99811.63;1722823;83;21186;-60
2021/04/22 06:15:12;;;;;;;11.65;8.15;;;;;;;10.15;72.37;99808.58;1706071;83;21572;-58
2021/04/22 06:17:41;;;;;;;11.48;8.35;;;;;;;10.21;71.79;99815.80;1667821;84;21729;-58
2021/04/22 06:20:19;;;;;;;9.48;6.47;;;;;;;10.32;72.04;99815.59;1731646;81;21557;-57
2021/04/22 06:22:49;;;;;;;11.78;7.87;;;;;;;10.52;72.33;99814.89;1770419;81;21252;-58
2021/04/22 06:25:19;;;;;;;8.73;6.15;;;;;;;10.78;71.87;99813.06;1757153;80;21710;-60
2021/04/22 06:27:53;;;;;;;12.50;6.85;;;;;;;10.97;70.77;99813.31;1765045;80;21098;-58
2021/04/22 06:30:26;;;;;;;9.15;6.08;;;;;;;11.15;70.43;99813.70;1754348;81;22076;-58
2021/04/22 06:32:55;;;;;;;8.45;6.22;;;;;;;11.28;69.33;99806.23;1748108;82;21134;-57
2021/04/22 06:35:24;;;;;;;10.95;6.83;;;;;;;11.36;68.66;99804.93;1766096;81;21256;-58
2021/04/22 06:37:53;;;;;;;9.28;6.53;;;;;;;11.45;68.61;99808.40;1753086;80;21130;-59
2021/04/22 06:40:22;;;;;;;9.73;6.53;;;;;;;11.50;68.16;99806.94;1765694;80;21657;-59
2021/04/22 06:42:54;;;;;;;9.53;6.55;;;;;;;11.54;67.57;99810.03;1777882;80;21095;-58
2021/04/22 06:45:23;;;;;;;11.10;6.67;;;;;;;11.58;67.49;99810.87;1778972;80;21585;-60
2021/04/22 06:47:51;;;;;;;12.30;7.80;;;;;;;11.64;67.94;99809.90;1752318;80;21684;-58
2021/04/22 06:50:22;;;;;;;10.60;7.15;;;;;;;11.72;67.99;99807.28;1754729;81;21569;-59
2021/04/22 06:52:51;;;;;;;9.65;7.12;;;;;;;11.80;67.03;99804.20;1748367;82;21114;-58
2021/04/22 06:55:23;;;;;;;11.38;6.80;;;;;;;11.83;66.09;99799.96;1752341;81;21276;-58
2021/04/22 06:57:54;;;;;;;11.97;7.92;;;;;;;11.86;65.94;99796.19;1762052;81;21088;-59
2021/04/22 07:00:24;;;;;;;10.38;6.85;;;;;;;11.89;65.70;99801.61;1753269;81;22501;-59
2021/04/22 07:02:52;;;;;;;14.45;6.95;;;;;;;11.98;65.93;99808.47;1747484;81;21575;-57
2021/04/22 07:05:21;;;;;;;8.83;6.60;;;;;;;12.09;65.70;99810.27;1751652;81;21582;-58
2021/04/22 07:07:49;;;;;;;9.58;5.95;;;;;;;12.15;65.39;99807.48;1751438;81;21099;-57
2021/04/22 07:10:18;;;;;;;11.15;6.50;;;;;;;12.25;65.25;99803.39;1757421;81;21515;-57
2021/04/22 07:12:48;;;;;;;9.95;6.87;;;;;;;12.33;64.73;99816.47;1758348;81;21134;-57
2021/04/22 07:15:18;;;;;;;12.63;8.38;;;;;;;12.35;63.63;99815.30;1712573;83;21623;-58
2021/04/22 07:17:50;;;;;;;10.65;7.00;;;;;;;12.39;63.91;99807.45;1718813;82;21563;-59
2021/04/22 07:20:21;;;;;;;10.20;6.90;;;;;;;12.52;63.89;99809.55;1718798;83;21203;-58
2021/04/22 07:22:56;;;;;;;10.70;6.85;;;;;;;12.61;63.27;99811.18;1721002;82;21140;-58
2021/04/22 07:25:26;;;;;;;10.58;7.12;;;;;;;12.68;62.34;99810.51;1694683;85;21667;-59
2021/04/22 07:27:54;;;;;;;9.80;6.85;;;;;;;12.71;62.58;99810.97;1710543;84;21596;-58
2021/04/22 07:30:25;;;;;;;9.75;7.12;;;;;;;12.75;61.87;99810.97;1707071;83;21518;-58
2021/04/22 07:32:53;;;;;;;10.63;7.40;;;;;;;12.82;62.56;99817.66;1702479;84;21135;-60
2021/04/22 07:35:22;;;;;;;10.38;7.20;;;;;;;12.96;62.86;99821.38;1702791;84;21618;-61
2021/04/22 07:37:51;;;;;;;11.50;7.45;;;;;;;13.10;62.49;99821.97;1702619;84;21772;-59
2021/04/22 07:40:22;;;;;;;10.82;7.53;;;;;;;13.22;61.54;99822.44;1704624;83;21583;-59
2021/04/22 07:42:51;;;;;;;13.13;8.35;;;;;;;13.26;61.48;99827.18;1700113;83;21183;-57
2021/04/22 07:45:27;;;;;;;12.93;7.80;;;;;;;13.35;61.74;99826.16;1703669;83;21316;-59
2021/04/22 07:47:55;;;;;;;11.57;8.15;;;;;;;13.47;61.64;99822.62;1703946;83;21606;-59
2021/04/22 07:50:26;;;;;;;11.35;7.65;;;;;;;13.63;61.58;99819.09;1714738;83;22364;-57
2021/04/22 07:52:54;;;;;;;12.80;7.40;;;;;;;13.78;60.88;99821.27;1702690;82;21578;-59
2021/04/22 07:55:30;;;;;;;9.43;6.72;;;;;;;13.88;58.96;99824.48;1701638;83;21542;-58
2021/04/22 07:58:00;;;;;;;9.88;7.05;;;;;;;13.94;58.56;99819.03;1684881;83;21578;-56
2021/04/22 08:00:30;;;;;;;9.38;6.70;;;;;;;13.99;58.57;99829.33;1698555;83;21554;-58
2021/04/22 08:03:02;;;;;;;9.23;6.58;;;;;;;14.08;58.51;99826.13;1707327;83;21947;-60
2021/04/22 08:05:36;;;;;;;10.28;7.05;;;;;;;14.13;57.32;99825.11;1719136;83;21269;-58
2021/04/22 08:08:09;;;;;;;12.60;6.90;;;;;;;14.16;56.76;99821.30;1726774;82;21598;-57
2021/04/22 08:10:41;;;;;;;10.00;7.03;;;;;;;14.19;55.86;99828.84;1708475;83;21155;-58
2021/04/22 08:13:10;;;;;;;11.10;7.97;;;;;;;14.25;55.49;99822.87;1705695;83;21165;-58
2021/04/22 08:15:41;;;;;;;11.35;6.90;;;;;;;14.31;55.29;99825.28;1722089;83;21216;-58
2021/04/22 08:18:09;;;;;;;12.80;8.60;;;;;;;14.34;55.32;99826.23;1719131;83;21275;-58
2021/04/22 08:20:38;;;;;;;11.80;6.83;;;;;;;14.39;56.13;99833.89;1713204;83;21610;-58
2021/04/22 08:23:08;;;;;;;8.93;6.28;;;;;;;14.48;55.51;99826.80;1751054;80;21151;-58
2021/04/22 08:25:43;;;;;;;9.05;6.65;;;;;;;14.59;54.63;99825.52;1754709;80;21134;-58
2021/04/22 08:28:14;;;;;;;11.43;7.20;;;;;;;14.66;53.47;99823.32;1758689;81;21257;-57
2021/04/22 08:30:46;;;;;;;14.55;9.13;;;;;;;14.65;53.58;99825.61;1779000;80;21182;-58
2021/04/22 08:33:16;;;;;;;7.35;5.62;;;;;;;14.71;53.02;99823.57;1766534;81;21130;-57
2021/04/22 08:35:45;;;;;;;8.60;5.90;;;;;;;14.79;53.18;99820.05;1748476;81;21146;-57
2021/04/22 08:38:13;;;;;;;10.93;7.10;;;;;;;14.93;53.13;99818.41;1742266;80;21545;-59
2021/04/22 08:40:42;;;;;;;9.63;6.08;;;;;;;15.06;52.18;99819.89;1740931;81;21305;-60
2021/04/22 08:43:19;;;;;;;7.90;5.62;;;;;;;15.12;52.74;99809.94;1737376;81;21577;-59
2021/04/22 08:45:51;;;;;;;9.15;5.85;;;;;;;15.30;52.55;99809.55;1724428;82;21158;-58
2021/04/22 08:48:20;;;;;;;7.47;5.28;;;;;;;15.47;51.68;99807.00;1736507;81;21744;-58
2021/04/22 08:50:49;;;;;;;7.47;5.60;;;;;;;15.57;51.22;99801.41;1778148;81;22214;-59
2021/04/22 08:53:24;;;;;;;7.80;6.05;;;;;;;15.67;50.54;99801.96;1753493;80;21147;-56
2021/04/22 08:55:53;;;;;;;7.67;5.78;;;;;;;15.77;50.31;99807.71;1751819;81;21330;-57
2021/04/22 08:58:21;;;;;;;8.83;5.22;;;;;;;15.84;49.69;99802.53;1744699;80;21581;-57
2021/04/22 09:00:54;;;;;;;8.08;5.45;;;;;;;15.98;50.39;99802.13;1770535;80;21621;-57
2021/04/22 09:03:22;;;;;;;7.25;4.37;;;;;;;16.14;49.80;99804.48;1762248;80;21570;-58
2021/04/22 09:05:51;;;;;;;8.45;5.00;;;;;;;16.21;48.91;99804.05;1746412;81;21630;-56
2021/04/22 09:08:34;;;;;;;7.90;5.58;;;;;;;16.27;48.61;99800.65;1752874;81;21560;-58
2021/04/22 09:11:04;;;;;;;6.10;4.75;;;;;;;16.31;47.84;99804.51;1750696;80;21728;-58
2021/04/22 09:13:34;;;;;;;7.12;4.75;;;;;;;16.26;47.23;99800.31;1751635;80;21192;-59
2021/04/22 09:16:09;;;;;;;7.42;4.80;;;;;;;16.29;47.83;99789.91;1766849;81;21158;-57
2021/04/22 09:18:50;;;;;;;;;;;;;;;16.42;47.43;99794.75;1756642;80;21641;-59
2021/04/22 09:21:29;;;;;;;7.33;5.05;;;;;;;16.59;46.77;99799.73;1756623;81;20461;-58
2021/04/22 09:24:07;;;;;;;6.53;4.90;;;;;;;16.57;46.00;99802.55;1750430;80;21169;-58
2021/04/22 09:26:52;;;;;;;6.78;5.28;;;;;;;16.43;46.40;99806.11;1749289;81;21158;-59
2021/04/22 09:29:43;;;;;;;6.80;5.10;;;;;;;16.39;46.63;99802.22;1750766;80;21594;-61
2021/04/22 09:32:27;;;;;;;6.78;4.60;;;;;;;16.41;47.15;99805.50;1747097;81;21720;-59
2021/04/22 09:35:00;;;;;;;5.20;4.55;;;;;;;16.40;45.77;99802.56;1758735;80;21562;-55
2021/04/22 09:37:49;;;;;;;8.08;4.80;;;;;;;16.37;46.75;99806.88;1754630;80;21147;-57
2021/04/22 09:40:36;;;;;;;5.05;4.10;;;;;;;16.46;46.97;99803.58;1738653;81;21651;-57
2021/04/22 09:43:08;;;;;;;6.78;4.75;;;;;;;16.56;46.01;99814.61;1741026;82;21617;-58
2021/04/22 09:50:52;;;;;;;6.42;5.03;;;;;;;16.25;46.39;99800.51;1827512;77;24645;-57
2021/04/22 09:53:24;;;;;;;5.97;4.65;;;;;;;16.12;46.33;99795.45;1771957;80;21159;-56
2021/04/22 09:55:53;;;;;;;7.35;4.58;;;;;;;16.15;46.81;99800.86;1776416;80;21530;-57
2021/04/22 09:58:29;;;;;;;6.30;4.72;;;;;;;16.12;47.32;99799.41;1783965;78;21158;-56
2021/04/22 10:00:58;;;;;;;6.90;4.45;;;;;;;16.10;47.24;99800.61;1770881;80;21134;-57
2021/04/22 10:03:27;;;;;;;5.42;4.35;;;;;;;16.01;46.26;99801.23;1761356;81;21581;-56
2021/04/22 10:05:59;;;;;;;6.40;4.08;;;;;;;15.88;46.45;99801.94;1774942;78;21591;-57
2021/04/22 10:08:28;;;;;;;5.50;4.25;;;;;;;15.81;46.85;99798.44;1715833;83;21146;-56
2021/04/22 10:11:05;;;;;;;5.62;4.50;;;;;;;15.78;46.56;99796.20;1724503;81;21630;-57
2021/04/22 10:13:46;;;;;;;5.15;4.28;;;;;;;15.69;46.70;99795.18;1702716;83;21209;-57
2021/04/22 10:16:16;;;;;;;5.70;4.62;;;;;;;15.60;47.03;99798.42;1717444;83;21382;-57
2021/04/22 10:18:45;;;;;;;6.17;4.80;;;;;;;15.47;47.03;99796.47;1725765;83;21191;-57
2021/04/22 10:21:16;;;;;;;5.67;4.70;;;;;;;15.37;47.38;99792.00;1726063;83;21581;-59
2021/04/22 10:23:46;;;;;;;5.33;4.12;;;;;;;15.29;47.56;99800.83;1704283;82;21189;-57
2021/04/22 10:26:20;;;;;;;5.65;4.33;;;;;;;15.26;47.81;99792.48;1698575;83;21652;-56
2021/04/22 10:28:50;;;;;;;4.97;4.30;;;;;;;15.27;47.62;99788.84;1718231;83;21649;-57
2021/04/22 10:31:21;;;;;;;5.53;4.03;;;;;;;15.30;47.89;99786.66;1713588;84;21284;-56
2021/04/22 10:33:50;;;;;;;6.17;4.70;;;;;;;15.42;48.36;99779.09;1713817;83;21594;-57
2021/04/22 10:36:20;;;;;;;7.08;4.33;;;;;;;15.55;48.68;99766.56;1705018;82;21560;-57
2021/04/22 10:38:52;;;;;;;6.12;4.03;;;;;;;15.77;47.68;99771.33;1693944;85;21202;-55
2021/04/22 10:41:21;;;;;;;4.40;3.95;;;;;;;15.98;46.27;99761.29;1693942;85;21288;-58
2021/04/22 10:43:52;;;;;;;6.25;4.12;;;;;;;16.11;46.25;99767.47;1693888;85;22027;-58
2021/04/22 10:46:20;;;;;;;5.30;3.95;;;;;;;16.20;45.82;99772.59;1720523;82;21174;-58
2021/04/22 10:48:51;;;;;;;5.67;4.20;;;;;;;16.22;45.37;99768.77;1724643;83;21194;-59
2021/04/22 10:51:20;;;;;;;4.62;3.60;;;;;;;16.27;46.55;99769.48;1754912;82;21157;-57
2021/04/22 10:53:50;;;;;;;4.92;3.75;;;;;;;16.35;45.10;99761.45;1753417;81;21139;-58
2021/04/22 10:56:26;;;;;;;5.28;4.03;;;;;;;16.34;44.15;99764.59;1747305;81;21159;-58
2021/04/22 10:58:55;;;;;;;5.28;3.80;;;;;;;16.33;45.00;99751.58;1738394;80;21200;-58
2021/04/22 11:01:33;;;;;;;6.47;4.15;;;;;;;16.46;44.69;99750.84;1754023;82;21296;-58
2021/04/22 11:04:06;;;;;;;7.95;4.70;;;;;;;16.55;44.11;99757.60;1740613;82;21178;-58
2021/04/22 11:06:39;;;;;;;6.78;4.50;;;;;;;16.56;44.18;99750.80;1720766;82;21190;-58
2021/04/22 11:09:17;;;;;;;6.35;4.03;;;;;;;16.67;44.71;99738.89;1722648;82;21737;-57
2021/04/22 11:11:58;;;;;;;4.47;3.33;;;;;;;16.73;43.80;99738.14;1751545;80;21162;-58
2021/04/22 11:14:43;;;;;;;5.15;4.00;;;;;;;16.76;44.12;99734.28;1756034;81;21650;-58
2021/04/22 11:17:11;;;;;;;4.83;3.70;;;;;;;16.87;44.07;99721.34;1742075;81;21586;-58
2021/04/22 11:19:44;;;;;;;6.17;3.90;;;;;;;16.91;43.67;99724.41;1756321;82;21183;-57
2021/04/22 11:22:23;;;;;;;6.17;4.00;;;;;;;16.99;44.40;99719.45;1750898;82;21126;-57
2021/04/22 11:24:55;;;;;;;6.40;4.35;;;;;;;17.11;43.40;99722.63;1744267;82;21550;-57
2021/04/22 11:27:25;;;;;;;11.45;4.80;;;;;;;17.10;42.89;99710.96;1746117;82;21341;-57
2021/04/22 11:29:59;;;;;;;7.58;4.42;;;;;;;17.00;41.80;99707.37;1742697;82;21139;-57
